Time;durP1;ratioP1;P1;durP2;ratioP2;P2;SDS_P1;SDS_P2;PMS_P1;PMS_P2;Temp;Humidity;BMP_temperature;BMP_pressure;BME280_temperature;BME280_humidity;BME280_pressure;Samples;Min_cycle;Max_cycle;Signal;HPM_P1;HPM_P2
2022/10/19 00:01:07;;;;;;;26.45;9.57;;;18.90;99.90;;;;;;5061016;28;20478;-76
2022/10/19 00:03:35;;;;;;;26.47;11.77;;;18.90;99.90;;;;;;5055254;28;20021;-77
2022/10/19 00:06:23;;;;;;;20.33;9.95;;;18.90;99.90;;;;;;5054755;28;20025;-77
2022/10/19 00:08:50;;;;;;;29.27;11.68;;;18.90;99.90;;;;;;5051100;28;20025;-79
2022/10/19 00:11:15;;;;;;;24.23;11.63;;;18.90;99.90;;;;;;5053600;28;20048;-79
2022/10/19 00:13:41;;;;;;;32.20;10.77;;;18.80;99.90;;;;;;5048390;28;20041;-80
2022/10/19 00:16:12;;;;;;;25.38;9.55;;;18.80;99.90;;;;;;5058978;28;20021;-79
2022/10/19 00:18:39;;;;;;;27.73;11.75;;;18.80;99.90;;;;;;5053378;28;20536;-79
2022/10/19 00:21:06;;;;;;;29.48;11.30;;;18.70;99.90;;;;;;5052589;28;20370;-78
2022/10/19 00:23:33;;;;;;;21.27;9.80;;;18.70;99.90;;;;;;5044558;28;20116;-79
2022/10/19 00:25:59;;;;;;;27.98;10.77;;;18.70;99.90;;;;;;5057055;28;20112;-78
2022/10/19 00:28:25;;;;;;;23.00;10.65;;;18.80;99.90;;;;;;5063380;28;20067;-79
2022/10/19 00:30:51;;;;;;;20.92;10.43;;;18.70;99.90;;;;;;5059127;28;20055;-78
2022/10/19 00:33:20;;;;;;;21.58;10.70;;;18.80;99.90;;;;;;5056932;28;20118;-79
2022/10/19 00:35:48;;;;;;;34.95;11.50;;;18.80;99.90;;;;;;5062260;28;20050;-79
2022/10/19 00:38:15;;;;;;;27.88;10.57;;;18.70;99.90;;;;;;5063917;28;20048;-78
2022/10/19 00:40:41;;;;;;;28.98;10.20;;;18.70;99.90;;;;;;5047983;28;20049;-78
2022/10/19 00:43:19;;;;;;;30.42;9.40;;;18.70;99.90;;;;;;5055779;28;20405;-80
2022/10/19 00:45:45;;;;;;;28.05;11.90;;;18.70;99.90;;;;;;5059059;28;20031;-78
2022/10/19 00:48:16;;;;;;;25.88;10.63;;;18.70;99.90;;;;;;5056356;28;20092;-78
2022/10/19 00:50:44;;;;;;;25.65;10.02;;;18.70;99.90;;;;;;5056487;28;20029;-79
2022/10/19 00:53:10;;;;;;;21.20;10.32;;;18.70;99.90;;;;;;5056774;28;20021;-79
2022/10/19 00:55:38;;;;;;;21.23;11.85;;;18.70;99.90;;;;;;5056745;28;20033;-78
2022/10/19 00:58:04;;;;;;;26.92;11.65;;;18.70;99.90;;;;;;5070360;28;20025;-78
2022/10/19 01:00:30;;;;;;;26.17;10.23;;;18.70;99.90;;;;;;5055489;28;20032;-78
2022/10/19 01:02:57;;;;;;;22.83;10.35;;;18.70;99.90;;;;;;5054979;28;20013;-79
2022/10/19 01:05:24;;;;;;;25.23;11.20;;;18.70;99.90;;;;;;5047716;28;20037;-77
2022/10/19 01:07:50;;;;;;;28.45;10.82;;;18.70;99.90;;;;;;5051741;28;20021;-79
2022/10/19 01:10:16;;;;;;;17.08;9.98;;;18.70;99.90;;;;;;5051091;28;20469;-79
2022/10/19 01:12:51;;;;;;;24.50;10.80;;;18.70;99.90;;;;;;5064488;28;20072;-79
2022/10/19 01:15:20;;;;;;;21.90;10.48;;;18.80;99.90;;;;;;5070241;28;20032;-79
2022/10/19 01:18:13;;;;;;;22.85;9.90;;;18.80;99.90;;;;;;5058746;28;20656;-78
2022/10/19 01:21:22;;;;;;;29.77;10.43;;;18.70;99.90;;;;;;5057056;28;20112;-79
2022/10/19 01:24:07;;;;;;;26.20;11.30;;;18.70;99.90;;;;;;5056621;28;20024;-78
2022/10/19 01:27:02;;;;;;;32.65;10.68;;;18.70;99.90;;;;;;5051511;28;20028;-79
2022/10/19 01:29:42;;;;;;;25.88;11.50;;;18.70;99.90;;;;;;5057111;28;20384;-79
2022/10/19 01:32:14;;;;;;;21.38;10.32;;;18.70;99.90;;;;;;5054880;28;20021;-79
2022/10/19 01:35:29;;;;;;;21.52;10.30;;;18.70;99.90;;;;;;5051067;28;20033;-79
2022/10/19 01:38:01;;;;;;;26.83;12.25;;;18.70;99.90;;;;;;5032942;28;20603;-79
2022/10/19 01:40:57;;;;;;;24.50;10.48;;;18.60;99.90;;;;;;5050759;28;20037;-77
2022/10/19 01:43:44;;;;;;;28.60;11.13;;;18.60;99.90;;;;;;5053887;28;20025;-79
2022/10/19 01:46:33;;;;;;;22.63;11.45;;;18.50;99.90;;;;;;5052961;28;20365;-77
2022/10/19 01:49:29;;;;;;;26.95;11.88;;;18.60;99.90;;;;;;5055740;28;20040;-78
2022/10/19 01:52:03;;;;;;;32.55;12.05;;;18.50;99.90;;;;;;5025609;28;20028;-80
2022/10/19 01:54:41;;;;;;;22.02;10.20;;;18.50;99.90;;;;;;5067188;28;20032;-77
2022/10/19 01:57:10;;;;;;;23.45;12.05;;;18.50;99.90;;;;;;5056343;28;20073;-78
2022/10/19 01:59:37;;;;;;;24.95;9.77;;;18.50;99.90;;;;;;5053969;28;20496;-79
2022/10/19 02:02:05;;;;;;;31.52;11.75;;;18.50;99.90;;;;;;5055797;28;20017;-79
2022/10/19 02:04:32;;;;;;;23.77;11.35;;;18.40;99.90;;;;;;5055419;28;20021;-77
2022/10/19 02:07:00;;;;;;;33.22;11.55;;;18.40;99.90;;;;;;5051117;28;20018;-78
2022/10/19 02:09:26;;;;;;;24.25;11.07;;;18.40;99.90;;;;;;5072450;28;20025;-79
2022/10/19 02:11:58;;;;;;;39.58;11.48;;;18.40;99.90;;;;;;5052627;28;20041;-78
2022/10/19 02:14:33;;;;;;;27.45;12.98;;;18.40;99.90;;;;;;5069624;28;20025;-79
2022/10/19 02:17:08;;;;;;;29.73;11.48;;;18.30;99.90;;;;;;5064029;28;20551;-80
2022/10/19 02:19:34;;;;;;;30.40;12.40;;;18.40;99.90;;;;;;5055171;28;20053;-80
2022/10/19 02:22:00;;;;;;;34.25;12.35;;;18.40;99.90;;;;;;5058322;28;20029;-77
2022/10/19 02:24:26;;;;;;;31.38;10.57;;;18.40;99.90;;;;;;5060676;28;20028;-79
2022/10/19 02:26:52;;;;;;;30.38;13.02;;;18.40;99.90;;;;;;5062790;28;20086;-80
2022/10/19 02:29:19;;;;;;;28.85;11.90;;;18.40;99.90;;;;;;5053707;28;20025;-79
2022/10/19 02:31:44;;;;;;;29.33;12.38;;;18.40;99.90;;;;;;5055203;28;20571;-80
2022/10/19 02:34:11;;;;;;;34.20;13.15;;;18.40;99.90;;;;;;5062397;28;20025;-78
2022/10/19 02:36:37;;;;;;;33.83;12.38;;;18.40;99.90;;;;;;5058964;28;20045;-78
2022/10/19 02:39:03;;;;;;;27.83;12.35;;;18.40;99.90;;;;;;5055703;28;20578;-79
2022/10/19 02:41:51;;;;;;;35.00;12.60;;;18.50;99.90;;;;;;5055169;28;20108;-79
2022/10/19 02:44:26;;;;;;;24.08;12.10;;;18.40;99.90;;;;;;5056458;28;20030;-79
2022/10/19 02:47:02;;;;;;;32.50;12.65;;;18.40;99.90;;;;;;5057864;28;20033;-80
2022/10/19 02:49:29;;;;;;;28.83;12.93;;;18.40;99.90;;;;;;5060353;28;20029;-79
2022/10/19 02:51:59;;;;;;;34.38;13.57;;;18.30;99.90;;;;;;5054275;28;20017;-79
2022/10/19 02:54:25;;;;;;;27.45;11.82;;;18.40;99.90;;;;;;5056021;28;20051;-79
2022/10/19 02:56:51;;;;;;;39.78;13.20;;;18.30;99.90;;;;;;5053793;28;20027;-80
2022/10/19 02:59:17;;;;;;;33.75;12.18;;;18.40;99.90;;;;;;5059409;28;20080;-79
2022/10/19 03:01:43;;;;;;;25.98;13.60;;;18.30;99.90;;;;;;5054367;28;20111;-81
2022/10/19 03:04:08;;;;;;;33.38;12.65;;;18.30;99.90;;;;;;5061909;28;20059;-79
2022/10/19 03:06:34;;;;;;;42.63;13.00;;;18.40;99.90;;;;;;5051787;28;20728;-79
2022/10/19 03:09:00;;;;;;;33.75;12.50;;;18.30;99.90;;;;;;5061914;28;20028;-79
2022/10/19 03:11:26;;;;;;;41.42;13.07;;;18.40;99.90;;;;;;5057124;28;20041;-79
2022/10/19 03:13:52;;;;;;;33.67;13.45;;;18.40;99.90;;;;;;5062354;28;20100;-80
2022/10/19 03:16:17;;;;;;;38.47;12.90;;;18.40;99.90;;;;;;5052115;28;20025;-79
2022/10/19 03:18:43;;;;;;;30.67;13.23;;;18.40;99.90;;;;;;5058206;28;20025;-79
2022/10/19 03:21:11;;;;;;;37.30;12.40;;;18.30;99.90;;;;;;5071230;28;20090;-78
2022/10/19 03:23:38;;;;;;;28.98;11.43;;;18.30;99.90;;;;;;5060108;28;20017;-79
2022/10/19 03:26:04;;;;;;;40.83;13.70;;;18.40;99.90;;;;;;5066785;28;20047;-79
2022/10/19 03:28:31;;;;;;;28.27;12.65;;;18.40;99.90;;;;;;5061901;28;20025;-80
2022/10/19 03:30:57;;;;;;;35.80;13.05;;;18.40;99.90;;;;;;5057186;28;20052;-79
2022/10/19 03:33:23;;;;;;;35.92;13.20;;;18.40;99.90;;;;;;5054136;28;20040;-78
2022/10/19 03:35:49;;;;;;;32.13;13.55;;;18.40;99.90;;;;;;5069202;28;20444;-80
2022/10/19 03:38:15;;;;;;;38.72;12.70;;;18.40;99.90;;;;;;5060375;28;20032;-79
2022/10/19 03:40:41;;;;;;;36.13;12.13;;;18.40;99.90;;;;;;5048565;28;20026;-77
2022/10/19 03:43:07;;;;;;;25.58;12.07;;;18.40;99.90;;;;;;5056564;28;20013;-78
2022/10/19 03:45:33;;;;;;;35.30;11.98;;;18.40;99.90;;;;;;5072845;28;20383;-78
2022/10/19 03:47:58;;;;;;;39.28;12.60;;;18.50;99.90;;;;;;5071825;28;20093;-80
2022/10/19 03:50:24;;;;;;;32.10;13.18;;;18.50;99.90;;;;;;5058930;28;20013;-77
2022/10/19 03:52:50;;;;;;;27.17;11.80;;;18.40;99.90;;;;;;5062236;28;20025;-78
2022/10/19 03:55:16;;;;;;;28.42;11.52;;;18.50;99.90;;;;;;5060186;28;20385;-78
2022/10/19 03:57:42;;;;;;;35.97;11.43;;;18.50;99.90;;;;;;5062400;28;20082;-78
2022/10/19 04:00:09;;;;;;;41.80;11.98;;;18.50;99.90;;;;;;5058999;28;20025;-77
2022/10/19 04:02:35;;;;;;;32.03;12.13;;;18.50;99.90;;;;;;5059912;28;20056;-79
2022/10/19 04:05:01;;;;;;;35.55;12.25;;;18.60;99.90;;;;;;5058959;28;20465;-78
2022/10/19 04:07:27;;;;;;;27.73;12.00;;;18.60;99.90;;;;;;5063264;28;20501;-79
2022/10/19 04:09:53;;;;;;;34.60;12.02;;;18.60;99.90;;;;;;5056182;28;20032;-78
2022/10/19 04:12:18;;;;;;;30.17;12.02;;;18.60;99.90;;;;;;5068372;28;20055;-79
2022/10/19 04:14:44;;;;;;;35.70;13.02;;;18.60;99.90;;;;;;5065302;28;20021;-79
2022/10/19 04:17:10;;;;;;;33.83;11.10;;;18.60;99.90;;;;;;5055508;28;20088;-77
2022/10/19 04:19:36;;;;;;;28.40;12.48;;;18.60;99.90;;;;;;5059254;28;20121;-77
2022/10/19 04:22:02;;;;;;;24.33;12.05;;;18.50;99.90;;;;;;5054844;28;20104;-77
2022/10/19 04:24:28;;;;;;;35.20;12.70;;;18.50;99.90;;;;;;5055953;28;20025;-78
2022/10/19 04:26:55;;;;;;;31.88;11.77;;;18.60;99.90;;;;;;5058521;28;20092;-76
2022/10/19 04:29:22;;;;;;;27.20;11.70;;;18.60;99.90;;;;;;5056779;28;20029;-79
2022/10/19 04:31:50;;;;;;;25.77;11.63;;;18.60;99.90;;;;;;5056824;28;20078;-77
2022/10/19 04:34:16;;;;;;;29.55;10.98;;;18.70;99.90;;;;;;5056577;28;20543;-77
2022/10/19 04:36:42;;;;;;;35.00;12.05;;;18.70;99.90;;;;;;5056778;28;20025;-77
2022/10/19 04:39:08;;;;;;;27.10;10.65;;;18.70;99.90;;;;;;5056626;28;20028;-76
2022/10/19 04:41:34;;;;;;;27.52;11.15;;;18.80;99.90;;;;;;5074050;28;20029;-78
2022/10/19 04:44:02;;;;;;;21.95;11.07;;;18.80;99.90;;;;;;5072335;28;20650;-78
2022/10/19 04:46:29;;;;;;;30.23;11.90;;;18.80;99.90;;;;;;5066317;28;20391;-76
2022/10/19 04:48:55;;;;;;;28.02;10.90;;;18.80;99.90;;;;;;5051156;28;20048;-78
2022/10/19 04:51:22;;;;;;;35.97;12.40;;;18.80;99.90;;;;;;5056559;28;20021;-78
2022/10/19 04:53:48;;;;;;;23.33;10.98;;;18.70;99.90;;;;;;5055460;28;20552;-80
2022/10/19 04:56:20;;;;;;;19.90;10.05;;;18.70;99.90;;;;;;5055270;28;20110;-77
2022/10/19 04:58:47;;;;;;;22.85;10.65;;;18.70;99.90;;;;;;5056657;28;20107;-78
2022/10/19 05:01:18;;;;;;;35.55;10.55;;;18.70;99.90;;;;;;5055045;28;20029;-78
2022/10/19 05:03:45;;;;;;;28.50;10.60;;;18.80;99.90;;;;;;5056031;28;20017;-78
2022/10/19 05:06:12;;;;;;;29.77;11.60;;;18.80;99.90;;;;;;5063619;28;20035;-77
2022/10/19 05:08:38;;;;;;;29.98;11.65;;;18.80;99.90;;;;;;5050880;28;20100;-79
2022/10/19 05:11:10;;;;;;;28.50;11.00;;;18.80;99.90;;;;;;5057455;28;20081;-78
2022/10/19 05:13:36;;;;;;;25.75;11.82;;;18.70;99.90;;;;;;5061910;28;20108;-76
2022/10/19 05:16:04;;;;;;;41.00;12.02;;;18.80;99.90;;;;;;5060585;28;20028;-77
2022/10/19 05:18:31;;;;;;;27.17;10.77;;;18.80;99.90;;;;;;5055797;28;20044;-78
2022/10/19 05:21:05;;;;;;;27.13;12.23;;;18.80;99.90;;;;;;5053553;28;20032;-79
2022/10/19 05:23:31;;;;;;;25.13;10.85;;;18.80;99.90;;;;;;5056212;28;20025;-77
2022/10/19 05:26:10;;;;;;;26.85;12.38;;;18.70;99.90;;;;;;5051907;28;20631;-77
2022/10/19 05:28:37;;;;;;;30.00;11.85;;;18.80;99.90;;;;;;5054638;28;20096;-77
2022/10/19 05:31:08;;;;;;;27.65;12.68;;;18.70;99.90;;;;;;5061487;28;20054;-78
2022/10/19 05:33:34;;;;;;;28.58;12.10;;;18.70;99.90;;;;;;5056223;28;20055;-77
2022/10/19 05:36:18;;;;;;;25.42;11.05;;;18.70;99.90;;;;;;5049392;28;20029;-79
2022/10/19 05:38:45;;;;;;;29.92;11.82;;;18.70;99.90;;;;;;5051355;28;20040;-78
2022/10/19 05:41:12;;;;;;;29.10;11.88;;;18.70;99.90;;;;;;5055729;28;20029;-77
2022/10/19 05:43:39;;;;;;;26.45;12.43;;;18.70;99.90;;;;;;5054556;28;20021;-79
2022/10/19 05:46:07;;;;;;;23.55;11.15;;;18.70;99.90;;;;;;5055119;28;20021;-77
2022/10/19 05:48:34;;;;;;;28.85;12.73;;;18.70;99.90;;;;;;5059954;28;20052;-78
2022/10/19 05:51:03;;;;;;;25.77;10.40;;;18.60;99.90;;;;;;5056563;28;20122;-78
2022/10/19 05:53:30;;;;;;;26.75;11.13;;;18.60;99.90;;;;;;5053466;28;20496;-77
2022/10/19 05:55:56;;;;;;;29.80;11.27;;;18.70;99.90;;;;;;5051598;28;20485;-78
2022/10/19 05:58:22;;;;;;;29.10;11.82;;;18.80;99.90;;;;;;5054617;28;20025;-81
2022/10/19 06:00:52;;;;;;;28.65;12.52;;;18.80;99.90;;;;;;5054091;28;20025;-82
2022/10/19 06:03:18;;;;;;;31.35;10.75;;;18.80;99.90;;;;;;5059320;28;20021;-80
2022/10/19 06:05:43;;;;;;;28.98;12.38;;;18.80;99.90;;;;;;5053640;28;20075;-81
2022/10/19 06:08:09;;;;;;;37.05;14.30;;;18.80;99.90;;;;;;5056639;28;20048;-82
2022/10/19 06:10:35;;;;;;;32.05;12.02;;;18.80;99.90;;;;;;5055349;28;20511;-81
2022/10/19 06:13:01;;;;;;;39.35;12.25;;;18.70;99.90;;;;;;5056616;28;20032;-82
2022/10/19 06:15:26;;;;;;;25.70;11.52;;;18.70;99.90;;;;;;5054958;28;20066;-81
2022/10/19 06:17:52;;;;;;;31.25;13.40;;;18.70;99.90;;;;;;5055292;28;20471;-82
2022/10/19 06:20:18;;;;;;;28.92;12.30;;;18.70;99.90;;;;;;5054887;28;20014;-80
2022/10/19 06:22:44;;;;;;;31.23;11.15;;;18.70;99.90;;;;;;5060631;28;20017;-81
2022/10/19 06:25:09;;;;;;;33.53;12.45;;;18.80;99.90;;;;;;5054972;28;20052;-80
2022/10/19 06:27:35;;;;;;;32.92;13.02;;;18.80;99.90;;;;;;5056753;28;20047;-79
2022/10/19 06:30:01;;;;;;;36.75;12.52;;;18.80;99.90;;;;;;5055171;28;20060;-79
2022/10/19 06:32:27;;;;;;;23.10;12.60;;;18.80;99.90;;;;;;5056155;28;20473;-81
2022/10/19 06:34:53;;;;;;;35.92;11.02;;;18.80;99.90;;;;;;5056443;28;20049;-80
2022/10/19 06:37:19;;;;;;;32.83;11.77;;;18.80;99.90;;;;;;5056312;28;20025;-77
2022/10/19 06:39:44;;;;;;;30.63;12.02;;;18.80;99.90;;;;;;5054680;28;20028;-78
2022/10/19 06:42:10;;;;;;;28.38;13.07;;;18.80;99.90;;;;;;5059396;28;20029;-78
2022/10/19 06:44:36;;;;;;;26.13;11.07;;;18.80;99.90;;;;;;5058777;28;20020;-79
2022/10/19 06:47:02;;;;;;;27.52;11.90;;;18.90;99.90;;;;;;5059714;28;20480;-79
2022/10/19 06:49:28;;;;;;;25.73;13.20;;;18.90;99.90;;;;;;5060219;28;20044;-77
2022/10/19 06:51:53;;;;;;;33.17;12.80;;;18.90;99.90;;;;;;5059977;28;20036;-79
2022/10/19 06:54:19;;;;;;;28.92;12.07;;;18.90;99.90;;;;;;5058782;28;20036;-79
2022/10/19 06:56:45;;;;;;;22.98;11.50;;;19.00;99.90;;;;;;5057680;28;20061;-78
2022/10/19 06:59:12;;;;;;;24.48;10.07;;;19.00;99.90;;;;;;5059312;28;20021;-77
2022/10/19 07:01:38;;;;;;;26.33;10.90;;;19.00;99.90;;;;;;5056895;28;20021;-78
2022/10/19 07:04:04;;;;;;;30.20;13.13;;;19.10;99.90;;;;;;5057328;28;20013;-76
2022/10/19 07:06:30;;;;;;;33.08;12.05;;;19.10;99.90;;;;;;5059223;28;20542;-77
2022/10/19 07:08:55;;;;;;;37.85;12.10;;;19.20;99.90;;;;;;5058539;28;20108;-77
2022/10/19 07:11:21;;;;;;;27.92;11.80;;;19.30;99.90;;;;;;5058702;28;20071;-78
2022/10/19 07:13:47;;;;;;;25.48;12.27;;;19.30;99.90;;;;;;5058332;28;20025;-76
2022/10/19 07:16:15;;;;;;;24.40;11.98;;;19.40;99.90;;;;;;5059503;28;20032;-76
2022/10/19 07:18:41;;;;;;;38.05;13.02;;;19.50;99.90;;;;;;5058359;28;20027;-78
2022/10/19 07:21:12;;;;;;;29.23;10.98;;;19.60;99.90;;;;;;5058299;28;20040;-78
2022/10/19 07:23:40;;;;;;;27.13;11.00;;;19.60;99.90;;;;;;5057394;28;20017;-78
2022/10/19 07:26:10;;;;;;;34.03;10.80;;;19.60;99.90;;;;;;5059668;28;20013;-76
2022/10/19 07:28:38;;;;;;;28.73;10.63;;;19.70;99.90;;;;;;5058109;28;20024;-76
2022/10/19 07:31:09;;;;;;;30.40;11.45;;;19.70;99.90;;;;;;5059169;28;20036;-75
2022/10/19 07:33:35;;;;;;;21.05;9.93;;;19.80;99.90;;;;;;5057735;28;20024;-77
2022/10/19 07:36:04;;;;;;;32.45;9.50;;;19.90;99.90;;;;;;5048409;28;20022;-78
2022/10/19 07:38:30;;;;;;;22.38;9.80;;;20.00;99.90;;;;;;5058505;28;20070;-77
2022/10/19 07:41:06;;;;;;;20.23;8.25;;;20.00;99.90;;;;;;5059146;28;20033;-77
2022/10/19 07:43:32;;;;;;;19.38;9.27;;;20.10;99.90;;;;;;5053176;28;20541;-78
2022/10/19 07:46:07;;;;;;;22.15;8.77;;;20.10;99.90;;;;;;5057551;28;20053;-78
2022/10/19 07:48:34;;;;;;;30.23;8.73;;;20.00;99.90;;;;;;5059215;28;20021;-79
2022/10/19 07:51:02;;;;;;;26.95;9.00;;;20.10;99.90;;;;;;5053361;28;20022;-77
2022/10/19 07:53:28;;;;;;;18.27;7.80;;;20.10;99.90;;;;;;5058891;28;20099;-77
2022/10/19 07:55:54;;;;;;;20.42;8.63;;;20.00;99.90;;;;;;5057066;28;20037;-75
2022/10/19 07:58:20;;;;;;;19.70;8.00;;;20.10;99.90;;;;;;5059119;28;20157;-75
2022/10/19 08:00:46;;;;;;;19.13;8.52;;;20.10;99.90;;;;;;5057898;28;20033;-78
2022/10/19 08:03:11;;;;;;;16.70;7.63;;;20.10;99.90;;;;;;5057385;28;20079;-78
2022/10/19 08:05:37;;;;;;;23.00;8.38;;;20.10;99.90;;;;;;5057453;28;20032;-79
2022/10/19 08:08:03;;;;;;;19.17;8.95;;;20.10;99.90;;;;;;5057414;28;20017;-78
2022/10/19 08:10:29;;;;;;;16.38;7.68;;;20.20;99.90;;;;;;5057130;28;20044;-77
2022/10/19 08:12:55;;;;;;;17.63;7.82;;;20.20;99.90;;;;;;5058754;28;20029;-77
2022/10/19 08:15:21;;;;;;;23.17;8.18;;;20.20;99.90;;;;;;5058758;28;20013;-77
2022/10/19 08:17:47;;;;;;;20.60;9.25;;;20.20;99.90;;;;;;5058199;28;20097;-79
2022/10/19 08:20:12;;;;;;;19.55;8.13;;;20.30;99.90;;;;;;5058566;28;20033;-78
2022/10/19 08:22:38;;;;;;;22.90;8.38;;;20.20;99.90;;;;;;5057002;28;20071;-79
2022/10/19 08:25:04;;;;;;;17.40;7.78;;;20.30;99.90;;;;;;5049861;28;20029;-77
2022/10/19 08:27:30;;;;;;;23.55;7.95;;;20.30;99.90;;;;;;5058201;28;20020;-78
2022/10/19 08:29:56;;;;;;;20.85;8.77;;;20.30;99.90;;;;;;5058488;28;20468;-78
2022/10/19 08:32:22;;;;;;;18.27;8.15;;;20.20;99.90;;;;;;5057068;28;20397;-78
2022/10/19 08:34:47;;;;;;;18.98;7.72;;;20.20;99.90;;;;;;5057182;28;20041;-80
2022/10/19 08:37:13;;;;;;;17.02;7.40;;;20.20;99.90;;;;;;5057179;28;20029;-77
2022/10/19 08:39:39;;;;;;;18.42;8.30;;;20.20;99.90;;;;;;5057828;28;20029;-76
2022/10/19 08:42:13;;;;;;;17.90;7.53;;;20.20;99.90;;;;;;5043965;28;20156;-77
2022/10/19 08:44:44;;;;;;;16.55;8.27;;;20.20;99.90;;;;;;5056036;28;20017;-78
2022/10/19 08:47:16;;;;;;;14.10;6.97;;;20.30;99.90;;;;;;5057401;28;20474;-79
2022/10/19 08:49:43;;;;;;;17.73;8.60;;;20.30;99.90;;;;;;5045906;28;20112;-78
2022/10/19 08:52:20;;;;;;;17.23;7.65;;;20.30;99.90;;;;;;5053536;28;20025;-79
2022/10/19 08:54:55;;;;;;;23.10;9.15;;;20.30;99.90;;;;;;5059488;28;20025;-78
2022/10/19 08:57:24;;;;;;;19.58;8.00;;;20.30;99.90;;;;;;5057813;28;20024;-80
2022/10/19 08:59:55;;;;;;;22.15;9.77;;;20.20;99.90;;;;;;5050959;28;20060;-78
2022/10/19 09:02:58;;;;;;;18.35;10.07;;;20.20;99.90;;;;;;5057334;28;20059;-78
2022/10/19 09:05:27;;;;;;;24.65;10.05;;;20.20;99.90;;;;;;5049583;28;20032;-79
2022/10/19 09:07:53;;;;;;;32.63;11.30;;;20.20;99.90;;;;;;5057462;28;20384;-81
2022/10/19 09:10:34;;;;;;;300.02;56.33;;;20.20;99.90;;;;;;5057579;28;20024;-80
2022/10/19 09:13:16;;;;;;;31.55;10.13;;;20.10;99.90;;;;;;5057329;28;20417;-80
2022/10/19 09:15:47;;;;;;;29.52;11.20;;;20.10;99.90;;;;;;5055045;28;20013;-80
2022/10/19 09:18:26;;;;;;;22.33;9.82;;;20.10;99.90;;;;;;5057080;28;20052;-75
2022/10/19 09:21:06;;;;;;;24.40;10.07;;;20.20;99.90;;;;;;5055679;28;20021;-78
2022/10/19 09:23:43;;;;;;;28.50;9.77;;;20.20;99.90;;;;;;5054734;28;20018;-80
2022/10/19 09:26:21;;;;;;;25.45;10.43;;;20.30;99.90;;;;;;5055996;28;20516;-80
2022/10/19 09:29:14;;;;;;;30.85;9.68;;;20.50;99.90;;;;;;5056931;28;20029;-78
2022/10/19 09:31:42;;;;;;;18.48;9.35;;;20.70;99.90;;;;;;5055481;28;20036;-79
2022/10/19 09:34:48;;;;;;;21.98;8.90;;;20.90;99.90;;;;;;5056380;28;20028;-79
2022/10/19 09:37:15;;;;;;;26.27;10.32;;;21.10;99.90;;;;;;5054708;28;20048;-82
2022/10/19 09:39:41;;;;;;;27.40;9.60;;;21.30;99.90;;;;;;5054903;28;20036;-81
2022/10/19 09:42:31;;;;;;;24.48;8.98;;;21.50;99.90;;;;;;5055557;28;20035;-82
2022/10/19 09:45:27;;;;;;;23.83;8.90;;;21.70;99.90;;;;;;5053905;28;20845;-82
2022/10/19 09:47:53;;;;;;;33.35;10.00;;;21.80;99.90;;;;;;5050372;28;20121;-80
2022/10/19 09:50:28;;;;;;;27.00;10.77;;;21.90;99.90;;;;;;5045947;28;20017;-79
2022/10/19 09:53:01;;;;;;;35.25;9.82;;;21.80;99.90;;;;;;5049442;28;20394;-81
2022/10/19 09:55:40;;;;;;;20.40;8.70;;;21.90;99.90;;;;;;5049405;28;20032;-81
2022/10/19 09:58:17;;;;;;;30.40;10.30;;;22.00;99.90;;;;;;5051274;28;20072;-81
2022/10/19 10:00:53;;;;;;;24.85;9.20;;;22.20;99.90;;;;;;5050661;28;20017;-81
2022/10/19 10:03:34;;;;;;;35.78;8.95;;;22.40;99.90;;;;;;5052932;28;20013;-80
2022/10/19 10:06:11;;;;;;;20.33;8.40;;;22.60;99.90;;;;;;5051048;28;20044;-80
2022/10/19 10:08:43;;;;;;;23.77;9.15;;;22.70;99.90;;;;;;5051073;28;20100;-83
2022/10/19 10:11:13;;;;;;;19.70;8.35;;;22.60;99.90;;;;;;5053306;28;20049;-82
2022/10/19 10:13:48;;;;;;;21.35;9.20;;;22.50;99.90;;;;;;5054067;28;20032;-84
2022/10/19 10:16:16;;;;;;;22.05;7.88;;;22.50;99.90;;;;;;5050929;28;20054;-83
2022/10/19 10:19:15;;;;;;;21.17;7.53;;;22.50;99.90;;;;;;5050274;28;20029;-78
2022/10/19 10:21:48;;;;;;;30.20;9.20;;;22.40;99.90;;;;;;5025436;28;20041;-79
2022/10/19 10:24:15;;;;;;;17.10;6.75;;;22.40;99.90;;;;;;5058513;28;20017;-83
2022/10/19 10:26:52;;;;;;;35.70;9.90;;;22.40;99.90;;;;;;5059592;28;20070;-81
2022/10/19 10:29:22;;;;;;;23.23;9.45;;;22.40;99.90;;;;;;5058673;28;20469;-79
2022/10/19 10:31:52;;;;;;;25.60;7.90;;;22.40;99.90;;;;;;5060271;28;20021;-80
2022/10/19 10:34:40;;;;;;;22.67;8.20;;;22.30;99.90;;;;;;5059331;28;20013;-81
2022/10/19 10:37:15;;;;;;;30.75;9.02;;;22.30;99.90;;;;;;5051915;28;20028;-82
2022/10/19 10:39:42;;;;;;;22.65;6.75;;;22.40;99.90;;;;;;5060986;28;20026;-81
2022/10/19 10:42:15;;;;;;;29.10;9.68;;;22.40;99.90;;;;;;5060051;28;20017;-81
2022/10/19 10:44:49;;;;;;;31.15;8.55;;;22.50;99.90;;;;;;5042784;28;20021;-82
2022/10/19 10:47:19;;;;;;;20.88;8.07;;;22.60;99.90;;;;;;5052792;28;20381;-81
2022/10/19 10:50:18;;;;;;;25.63;6.97;;;22.60;99.90;;;;;;5058781;28;20056;-79
2022/10/19 10:53:03;;;;;;;15.55;7.03;;;22.60;99.90;;;;;;5053760;28;20333;-82
2022/10/19 10:55:30;;;;;;;16.30;7.68;;;22.70;99.90;;;;;;5058652;28;20020;-81
2022/10/19 10:58:21;;;;;;;24.48;7.22;;;22.80;99.90;;;;;;5059226;28;20086;-83
2022/10/19 11:00:49;;;;;;;25.33;9.57;;;22.90;99.90;;;;;;5059843;28;20037;-81
2022/10/19 11:03:23;;;;;;;29.80;8.43;;;22.90;99.90;;;;;;5058841;28;20032;-81
2022/10/19 11:05:59;;;;;;;22.95;7.50;;;22.90;99.90;;;;;;5059923;28;20021;-82
2022/10/19 11:08:48;;;;;;;22.73;7.22;;;23.00;99.90;;;;;;5058970;28;20025;-81
2022/10/19 11:11:22;;;;;;;23.95;8.48;;;23.10;99.90;;;;;;5058410;28;20041;-81
2022/10/19 11:14:00;;;;;;;13.93;7.50;;;23.20;99.90;;;;;;5059594;28;20032;-81
2022/10/19 11:16:39;;;;;;;26.33;7.65;;;23.30;99.90;;;;;;5059179;28;20029;-81
2022/10/19 11:19:30;;;;;;;26.60;8.73;;;23.50;99.90;;;;;;5058563;28;20104;-82
2022/10/19 11:22:05;;;;;;;21.20;7.82;;;23.60;99.90;;;;;;5048566;28;20013;-79
2022/10/19 11:24:55;;;;;;;24.05;8.05;;;23.60;99.90;;;;;;5048872;28;20022;-79
2022/10/19 11:27:44;;;;;;;17.98;7.10;;;23.40;99.90;;;;;;5055214;28;20059;-83
2022/10/19 11:30:21;;;;;;;18.40;8.13;;;23.50;99.90;;;;;;5046449;28;20025;-78
2022/10/19 11:33:37;;;;;;;25.02;8.82;;;23.40;99.90;;;;;;5060514;28;20021;-81
2022/10/19 11:36:27;;;;;;;28.30;8.25;;;23.50;99.90;;;;;;5010748;28;20530;-81
2022/10/19 11:39:22;;;;;;;27.13;7.85;;;23.70;99.90;;;;;;4993848;28;20042;-80
2022/10/19 11:42:07;;;;;;;27.17;8.18;;;23.60;99.90;;;;;;5052897;28;20033;-80
2022/10/19 11:44:33;;;;;;;33.45;7.65;;;23.50;99.90;;;;;;5056973;28;20112;-80
2022/10/19 11:47:17;;;;;;;28.15;7.18;;;23.40;99.90;;;;;;5057413;28;20075;-82
2022/10/19 11:50:08;;;;;;;24.83;8.25;;;23.30;99.90;;;;;;5057168;28;20100;-80
2022/10/19 11:52:45;;;;;;;25.23;7.97;;;23.30;99.90;;;;;;5057878;28;20511;-80
2022/10/19 11:55:16;;;;;;;22.42;7.75;;;23.20;99.90;;;;;;5055656;28;20021;-81
2022/10/19 11:57:53;;;;;;;17.35;7.55;;;23.20;99.90;;;;;;5056234;28;20115;-82
2022/10/19 12:00:20;;;;;;;149.90;21.50;;;23.20;99.90;;;;;;5056625;28;20174;-81
2022/10/19 12:02:54;;;;;;;50.33;13.35;;;23.10;99.90;;;;;;5056250;28;20501;-79
2022/10/19 12:05:37;;;;;;;34.42;9.93;;;23.10;99.90;;;;;;5057670;28;20017;-81
2022/10/19 12:08:24;;;;;;;28.15;8.35;;;23.00;99.90;;;;;;5055397;28;20100;-80
2022/10/19 12:10:49;;;;;;;25.23;8.77;;;22.90;99.90;;;;;;5070828;28;20045;-81
2022/10/19 12:13:19;;;;;;;29.55;8.45;;;23.00;99.90;;;;;;5056242;28;20051;-79
2022/10/19 12:15:52;;;;;;;25.10;7.37;;;22.90;99.90;;;;;;5057318;28;20009;-82
2022/10/19 12:18:45;;;;;;;32.45;8.05;;;22.90;99.90;;;;;;5058184;28;20024;-80
2022/10/19 12:21:24;;;;;;;31.52;9.40;;;22.90;99.90;;;;;;5047995;28;20052;-80
2022/10/19 12:23:51;;;;;;;32.33;8.15;;;23.10;99.90;;;;;;5058334;28;20066;-80
2022/10/19 12:26:21;;;;;;;29.00;9.00;;;23.20;99.90;;;;;;5056856;28;20031;-82
2022/10/19 12:28:53;;;;;;;22.55;7.53;;;23.20;99.90;;;;;;5051501;28;20401;-82
2022/10/19 12:31:21;;;;;;;33.58;7.93;;;23.20;99.90;;;;;;5055014;28;20032;-79
2022/10/19 12:34:11;;;;;;;20.80;6.65;;;23.20;99.90;;;;;;5051754;28;20386;-81
2022/10/19 12:37:09;;;;;;;20.08;7.47;;;23.20;99.90;;;;;;5038915;28;20044;-79
2022/10/19 12:40:07;;;;;;;30.80;7.95;;;23.20;99.90;;;;;;5045125;28;20061;-80
2022/10/19 12:42:51;;;;;;;31.35;8.55;;;23.10;99.90;;;;;;5036339;28;20409;-80
2022/10/19 12:45:52;;;;;;;18.35;7.97;;;23.10;99.90;;;;;;5064939;28;20203;-78
2022/10/19 12:48:20;;;;;;;29.10;9.10;;;23.10;99.90;;;;;;5054006;28;20036;-81
2022/10/19 12:50:49;;;;;;;32.50;8.02;;;23.20;99.90;;;;;;5055866;28;20025;-80
2022/10/19 12:53:39;;;;;;;22.33;7.35;;;23.20;99.90;;;;;;5056021;28;20029;-78